sensor_id;sensor_type;location;lat;lon;timestamp;pressure;altitude;pressure_sealevel;temperature;humidity
22181;BME280;11256;50.830;12.834;2023-03-04T00:03:18;98047.91;;;2.40;64.89
22181;BME280;11256;50.830;12.834;2023-03-04T00:08:19;98050.31;;;2.48;65.29
22181;BME280;11256;50.830;12.834;2023-03-04T00:13:19;98050.31;;;2.48;65.22
22181;BME280;11256;50.830;12.834;2023-03-04T00:18:21;98030.22;;;2.39;65.20
22181;BME280;11256;50.830;12.834;2023-03-04T00:23:21;98037.97;;;2.47;64.99
22181;BME280;11256;50.830;12.834;2023-03-04T00:28:22;98023.25;;;2.38;65.32
22181;BME280;11256;50.830;12.834;2023-03-04T00:33:22;98030.69;;;2.36;64.91
22181;BME280;11256;50.830;12.834;2023-03-04T00:38:23;98033.31;;;2.42;65.60
22181;BME280;11256;50.830;12.834;2023-03-04T00:43:23;98030.63;;;2.42;64.97
22181;BME280;11256;50.830;12.834;2023-03-04T00:48:23;98025.66;;;2.46;65.54
22181;BME280;11256;50.830;12.834;2023-03-04T00:53:24;98019.53;;;2.39;65.43
22181;BME280;11256;50.830;12.834;2023-03-04T00:58:24;98013.88;;;2.29;65.62
22181;BME280;11256;50.830;12.834;2023-03-04T01:03:24;98004.81;;;2.30;65.87
22181;BME280;11256;50.830;12.834;2023-03-04T01:08:25;98008.97;;;2.26;66.03
22181;BME280;11256;50.830;12.834;2023-03-04T01:13:27;98004.38;;;2.33;65.43
22181;BME280;11256;50.830;12.834;2023-03-04T01:18:27;98003.78;;;2.31;65.55
22181;BME280;11256;50.830;12.834;2023-03-04T01:23:28;97992.78;;;2.21;65.34
22181;BME280;11256;50.830;12.834;2023-03-04T01:28:28;97993.69;;;2.33;65.52
22181;BME280;11256;50.830;12.834;2023-03-04T01:33:30;97978.59;;;2.20;65.19
22181;BME280;11256;50.830;12.834;2023-03-04T01:38:30;97994.94;;;2.30;65.93
22181;BME280;11256;50.830;12.834;2023-03-04T01:43:31;97980.16;;;2.28;65.42
22181;BME280;11256;50.830;12.834;2023-03-04T01:48:36;97974.81;;;2.28;65.79
22181;BME280;11256;50.830;12.834;2023-03-04T01:53:37;97973.63;;;2.24;65.63
22181;BME280;11256;50.830;12.834;2023-03-04T01:58:38;97965.00;;;2.22;65.87
22181;BME280;11256;50.830;12.834;2023-03-04T02:03:39;97953.13;;;2.18;65.85
22181;BME280;11256;50.830;12.834;2023-03-04T02:08:39;97940.38;;;2.20;66.13
22181;BME280;11256;50.830;12.834;2023-03-04T02:13:39;97932.19;;;2.15;65.89
22181;BME280;11256;50.830;12.834;2023-03-04T02:18:40;97945.75;;;2.13;65.60
22181;BME280;11256;50.830;12.834;2023-03-04T02:23:46;97929.34;;;2.10;66.23
22181;BME280;11256;50.830;12.834;2023-03-04T02:28:52;97937.53;;;2.15;66.51
22181;BME280;11256;50.830;12.834;2023-03-04T02:33:55;97935.91;;;2.14;65.88
22181;BME280;11256;50.830;12.834;2023-03-04T02:39:04;97923.19;;;2.09;66.27
22181;BME280;11256;50.830;12.834;2023-03-04T02:44:21;97939.84;;;2.11;65.85
22181;BME280;11256;50.830;12.834;2023-03-04T02:49:23;97917.94;;;2.03;65.82
22181;BME280;11256;50.830;12.834;2023-03-04T02:54:24;97921.94;;;2.12;65.55
22181;BME280;11256;50.830;12.834;2023-03-04T02:59:25;97920.09;;;2.12;65.85
22181;BME280;11256;50.830;12.834;2023-03-04T03:04:26;97912.28;;;2.11;66.61
22181;BME280;11256;50.830;12.834;2023-03-04T03:09:28;97907.16;;;2.09;66.32
22181;BME280;11256;50.830;12.834;2023-03-04T03:14:29;97902.28;;;2.06;66.05
22181;BME280;11256;50.830;12.834;2023-03-04T03:19:30;97901.44;;;2.06;66.68
22181;BME280;11256;50.830;12.834;2023-03-04T03:24:30;97889.59;;;2.02;66.24
22181;BME280;11256;50.830;12.834;2023-03-04T03:29:31;97887.44;;;2.10;66.41
22181;BME280;11256;50.830;12.834;2023-03-04T03:34:32;97876.22;;;2.02;66.00
22181;BME280;11256;50.830;12.834;2023-03-04T03:39:32;97884.38;;;2.07;66.15
22181;BME280;11256;50.830;12.834;2023-03-04T03:44:33;97868.63;;;1.99;65.73
22181;BME280;11256;50.830;12.834;2023-03-04T03:49:34;97882.09;;;2.10;66.35
22181;BME280;11256;50.830;12.834;2023-03-04T03:54:35;97857.06;;;2.05;66.64
22181;BME280;11256;50.830;12.834;2023-03-04T03:59:35;97869.63;;;2.04;66.59
22181;BME280;11256;50.830;12.834;2023-03-04T04:04:36;97875.91;;;2.10;66.58
22181;BME280;11256;50.830;12.834;2023-03-04T04:09:36;97877.53;;;2.11;66.65
22181;BME280;11256;50.830;12.834;2023-03-04T04:14:36;97888.22;;;2.11;67.05
22181;BME280;11256;50.830;12.834;2023-03-04T04:19:37;97884.59;;;2.05;66.48
22181;BME280;11256;50.830;12.834;2023-03-04T04:24:39;97884.25;;;2.02;66.16
22181;BME280;11256;50.830;12.834;2023-03-04T04:29:40;97888.69;;;2.08;66.54
22181;BME280;11256;50.830;12.834;2023-03-04T04:34:41;97891.22;;;2.03;66.40
22181;BME280;11256;50.830;12.834;2023-03-04T04:39:41;97899.75;;;2.11;66.64
22181;BME280;11256;50.830;12.834;2023-03-04T04:44:41;97897.28;;;2.10;66.18
22181;BME280;11256;50.830;12.834;2023-03-04T04:49:41;97899.38;;;2.08;66.79
22181;BME280;11256;50.830;12.834;2023-03-04T04:54:42;97884.25;;;2.02;66.38
22181;BME280;11256;50.830;12.834;2023-03-04T04:59:42;97886.81;;;2.08;66.23
22181;BME280;11256;50.830;12.834;2023-03-04T05:04:42;97880.88;;;2.06;66.55
22181;BME280;11256;50.830;12.834;2023-03-04T05:09:43;97890.69;;;2.12;67.04
22181;BME280;11256;50.830;12.834;2023-03-04T05:14:43;97898.34;;;2.09;66.42
22181;BME280;11256;50.830;12.834;2023-03-04T05:19:43;97896.72;;;2.08;66.71
22181;BME280;11256;50.830;12.834;2023-03-04T05:24:44;97899.38;;;2.08;66.75
22181;BME280;11256;50.830;12.834;2023-03-04T05:29:44;97909.25;;;2.07;66.34
22181;BME280;11256;50.830;12.834;2023-03-04T05:34:45;97903.91;;;2.07;66.73
22181;BME280;11256;50.830;12.834;2023-03-04T05:39:46;97896.09;;;2.06;66.60
22181;BME280;11256;50.830;12.834;2023-03-04T05:44:46;97887.50;;;2.04;66.79
22181;BME280;11256;50.830;12.834;2023-03-04T05:49:46;97883.41;;;2.01;67.04
22181;BME280;11256;50.830;12.834;2023-03-04T05:54:47;97880.38;;;2.16;67.11
22181;BME280;11256;50.830;12.834;2023-03-04T05:59:47;97881.84;;;2.12;66.47
22181;BME280;11256;50.830;12.834;2023-03-04T06:04:47;97869.38;;;2.06;66.84
22181;BME280;11256;50.830;12.834;2023-03-04T06:09:48;97873.81;;;2.12;66.93
22181;BME280;11256;50.830;12.834;2023-03-04T06:14:48;97875.03;;;2.16;67.16
22181;BME280;11256;50.830;12.834;2023-03-04T06:19:48;97889.00;;;2.18;66.58
22181;BME280;11256;50.830;12.834;2023-03-04T06:24:49;97879.56;;;2.15;67.05
22181;BME280;11256;50.830;12.834;2023-03-04T06:29:49;97872.34;;;2.16;66.91
22181;BME280;11256;50.830;12.834;2023-03-04T06:34:49;97877.47;;;2.17;67.01
22181;BME280;11256;50.830;12.834;2023-03-04T06:39:50;97879.94;;;2.19;66.55
22181;BME280;11256;50.830;12.834;2023-03-04T06:44:50;97879.47;;;2.22;67.15
22181;BME280;11256;50.830;12.834;2023-03-04T06:49:50;97872.97;;;2.18;67.26
22181;BME280;11256;50.830;12.834;2023-03-04T06:54:51;97881.72;;;2.25;67.04
22181;BME280;11256;50.830;12.834;2023-03-04T06:59:52;97888.25;;;2.29;67.00
22181;BME280;11256;50.830;12.834;2023-03-04T07:04:52;97875.84;;;2.34;67.13
22181;BME280;11256;50.830;12.834;2023-03-04T07:09:52;97874.44;;;2.32;67.65
22181;BME280;11256;50.830;12.834;2023-03-04T07:14:53;97863.44;;;2.22;67.99
22181;BME280;11256;50.830;12.834;2023-03-04T07:19:53;97872.81;;;2.31;68.04
22181;BME280;11256;50.830;12.834;2023-03-04T07:24:53;97878.72;;;2.33;67.92
22181;BME280;11256;50.830;12.834;2023-03-04T07:29:53;97878.88;;;2.38;67.88
22181;BME280;11256;50.830;12.834;2023-03-04T07:34:54;97880.25;;;2.29;67.76
22181;BME280;11256;50.830;12.834;2023-03-04T07:39:54;97869.28;;;2.30;67.89
22181;BME280;11256;50.830;12.834;2023-03-04T07:44:54;97878.06;;;2.37;68.06
22181;BME280;11256;50.830;12.834;2023-03-04T07:49:55;97869.09;;;2.32;68.09
22181;BME280;11256;50.830;12.834;2023-03-04T07:54:55;97863.44;;;2.40;67.95
22181;BME280;11256;50.830;12.834;2023-03-04T07:59:55;97884.50;;;2.48;67.96
22181;BME280;11256;50.830;12.834;2023-03-04T08:04:56;97872.91;;;2.54;68.61
22181;BME280;11256;50.830;12.834;2023-03-04T08:09:56;97857.19;;;2.46;68.19
22181;BME280;11256;50.830;12.834;2023-03-04T08:14:56;97860.38;;;2.54;68.57
22181;BME280;11256;50.830;12.834;2023-03-04T08:19:57;97875.72;;;2.59;68.84
22181;BME280;11256;50.830;12.834;2023-03-04T08:24:57;97867.50;;;2.60;68.20
22181;BME280;11256;50.830;12.834;2023-03-04T08:29:57;97860.41;;;2.66;68.91
22181;BME280;11256;50.830;12.834;2023-03-04T08:34:58;97860.91;;;2.74;68.75
22181;BME280;11256;50.830;12.834;2023-03-04T08:40:01;97856.97;;;2.77;68.80
22181;BME280;11256;50.830;12.834;2023-03-04T08:45:02;97860.97;;;2.86;68.74
22181;BME280;11256;50.830;12.834;2023-03-04T08:50:04;97855.19;;;2.89;68.99
22181;BME280;11256;50.830;12.834;2023-03-04T08:55:05;97854.84;;;2.97;69.20
22181;BME280;11256;50.830;12.834;2023-03-04T09:00:06;97856.25;;;2.99;68.94
22181;BME280;11256;50.830;12.834;2023-03-04T09:05:07;97845.53;;;2.99;69.20
22181;BME280;11256;50.830;12.834;2023-03-04T09:10:08;97838.91;;;3.02;69.08
22181;BME280;11256;50.830;12.834;2023-03-04T09:15:09;97852.22;;;3.20;69.01
22181;BME280;11256;50.830;12.834;2023-03-04T09:20:11;97852.59;;;3.35;69.74
22181;BME280;11256;50.830;12.834;2023-03-04T09:25:13;97842.94;;;3.34;69.66
22181;BME280;11256;50.830;12.834;2023-03-04T09:30:14;97841.53;;;3.43;69.76
22181;BME280;11256;50.830;12.834;2023-03-04T09:35:15;97841.34;;;3.56;69.99
22181;BME280;11256;50.830;12.834;2023-03-04T09:40:18;97833.19;;;3.62;70.12
22181;BME280;11256;50.830;12.834;2023-03-04T09:45:22;97842.63;;;3.88;70.51
22181;BME280;11256;50.830;12.834;2023-03-04T09:50:24;97838.16;;;3.93;70.54
22181;BME280;11256;50.830;12.834;2023-03-04T09:55:41;97835.00;;;4.08;69.96
22181;BME280;11256;50.830;12.834;2023-03-04T10:00:45;97827.78;;;4.20;70.14
22181;BME280;11256;50.830;12.834;2023-03-04T10:05:54;97822.22;;;4.38;70.47
22181;BME280;11256;50.830;12.834;2023-03-04T10:10:57;97804.31;;;4.55;70.81
22181;BME280;11256;50.830;12.834;2023-03-04T10:16:00;97815.88;;;4.55;70.74
22181;BME280;11256;50.830;12.834;2023-03-04T10:21:07;97802.56;;;4.60;70.67
22181;BME280;11256;50.830;12.834;2023-03-04T10:26:16;97810.56;;;4.72;70.31
22181;BME280;11256;50.830;12.834;2023-03-04T10:31:36;97803.25;;;4.84;70.01
22181;BME280;11256;50.830;12.834;2023-03-04T10:36:58;97802.78;;;4.87;69.55
22181;BME280;11256;50.830;12.834;2023-03-04T10:42:08;97803.75;;;4.97;69.72
22181;BME280;11256;50.830;12.834;2023-03-04T10:47:23;97793.44;;;5.06;69.95
22181;BME280;11256;50.830;12.834;2023-03-04T10:52:37;97788.97;;;5.11;69.42
22181;BME280;11256;50.830;12.834;2023-03-04T10:57:40;97796.31;;;5.16;69.72
22181;BME280;11256;50.830;12.834;2023-03-04T11:02:43;97783.47;;;5.18;69.49
22181;BME280;11256;50.830;12.834;2023-03-04T11:07:45;97792.72;;;5.27;69.02
22181;BME280;11256;50.830;12.834;2023-03-04T11:13:00;97771.41;;;5.37;68.84
22181;BME280;11256;50.830;12.834;2023-03-04T11:18:08;97758.31;;;5.24;68.49
22181;BME280;11256;50.830;12.834;2023-03-04T11:23:17;97756.19;;;5.26;68.78
22181;BME280;11256;50.830;12.834;2023-03-04T11:28:40;97769.53;;;5.37;68.62
22181;BME280;11256;50.830;12.834;2023-03-04T11:33:50;97754.22;;;5.38;68.75
22181;BME280;11256;50.830;12.834;2023-03-04T11:38:55;97753.00;;;5.45;68.40
22181;BME280;11256;50.830;12.834;2023-03-04T11:43:57;97752.81;;;5.52;68.20
22181;BME280;11256;50.830;12.834;2023-03-04T11:49:10;97751.09;;;5.62;68.58
22181;BME280;11256;50.830;12.834;2023-03-04T12:10:21;97726.09;;;5.62;67.50
22181;BME280;11256;50.830;12.834;2023-03-04T12:26:24;97728.88;;;5.67;67.63
22181;BME280;11256;50.830;12.834;2023-03-04T12:31:33;97716.47;;;5.66;67.99
22181;BME280;11256;50.830;12.834;2023-03-04T12:47:12;97707.16;;;5.73;67.57
22181;BME280;11256;50.830;12.834;2023-03-04T12:57:27;97681.66;;;5.76;67.41
22181;BME280;11256;50.830;12.834;2023-03-04T13:02:58;97692.09;;;5.89;67.97
22181;BME280;11256;50.830;12.834;2023-03-04T13:08:27;97691.56;;;5.92;67.24
22181;BME280;11256;50.830;12.834;2023-03-04T13:13:39;97695.38;;;5.96;67.11
22181;BME280;11256;50.830;12.834;2023-03-04T13:18:39;97662.44;;;5.84;67.39
22181;BME280;11256;50.830;12.834;2023-03-04T13:23:40;97676.25;;;5.92;67.54
22181;BME280;11256;50.830;12.834;2023-03-04T13:28:40;97674.34;;;5.93;67.36
22181;BME280;11256;50.830;12.834;2023-03-04T13:38:59;97672.38;;;6.05;67.33
22181;BME280;11256;50.830;12.834;2023-03-04T13:44:01;97661.63;;;6.05;67.32
22181;BME280;11256;50.830;12.834;2023-03-04T13:49:03;97642.72;;;6.00;67.24
22181;BME280;11256;50.830;12.834;2023-03-04T13:59:21;97641.19;;;6.09;67.33
22181;BME280;11256;50.830;12.834;2023-03-04T14:04:30;97639.69;;;6.18;67.17
22181;BME280;11256;50.830;12.834;2023-03-04T14:09:33;97632.69;;;6.17;67.42
22181;BME280;11256;50.830;12.834;2023-03-04T14:14:50;97637.06;;;6.23;66.91
22181;BME280;11256;50.830;12.834;2023-03-04T14:19:51;97643.84;;;6.30;66.95
22181;BME280;11256;50.830;12.834;2023-03-04T14:30:24;97625.38;;;6.39;66.98
22181;BME280;11256;50.830;12.834;2023-03-04T14:35:29;97613.00;;;6.38;67.13
22181;BME280;11256;50.830;12.834;2023-03-04T14:40:56;97618.03;;;6.34;67.34
22181;BME280;11256;50.830;12.834;2023-03-04T14:45:57;97606.50;;;6.34;66.74
22181;BME280;11256;50.830;12.834;2023-03-04T14:51:01;97604.03;;;6.32;66.83
22181;BME280;11256;50.830;12.834;2023-03-04T14:56:07;97613.28;;;6.41;66.74
22181;BME280;11256;50.830;12.834;2023-03-04T15:01:20;97615.94;;;6.36;66.88
22181;BME280;11256;50.830;12.834;2023-03-04T15:06:26;97606.97;;;6.31;66.76
22181;BME280;11256;50.830;12.834;2023-03-04T15:16:54;97596.16;;;6.21;67.59
22181;BME280;11256;50.830;12.834;2023-03-04T15:22:05;97603.66;;;6.19;67.61
22181;BME280;11256;50.830;12.834;2023-03-04T15:27:09;97609.59;;;6.21;67.53
22181;BME280;11256;50.830;12.834;2023-03-04T15:32:10;97604.97;;;6.16;67.69
22181;BME280;11256;50.830;12.834;2023-03-04T15:37:17;97613.81;;;6.12;67.80
22181;BME280;11256;50.830;12.834;2023-03-04T15:42:18;97615.91;;;6.10;67.85
22181;BME280;11256;50.830;12.834;2023-03-04T15:47:18;97605.28;;;5.93;67.74
22181;BME280;11256;50.830;12.834;2023-03-04T15:52:20;97607.19;;;5.98;68.01
22181;BME280;11256;50.830;12.834;2023-03-04T15:57:24;97616.84;;;5.94;68.07
22181;BME280;11256;50.830;12.834;2023-03-04T16:02:25;97616.53;;;5.90;67.98
22181;BME280;11256;50.830;12.834;2023-03-04T16:07:28;97633.47;;;5.91;68.45
22181;BME280;11256;50.830;12.834;2023-03-04T16:12:29;97612.34;;;5.78;68.24
22181;BME280;11256;50.830;12.834;2023-03-04T16:17:29;97610.09;;;5.70;68.34
22181;BME280;11256;50.830;12.834;2023-03-04T16:22:29;97627.66;;;5.77;67.90
22181;BME280;11256;50.830;12.834;2023-03-04T16:27:30;97617.06;;;5.71;68.66
22181;BME280;11256;50.830;12.834;2023-03-04T16:32:31;97626.22;;;5.70;67.92
22181;BME280;11256;50.830;12.834;2023-03-04T16:37:31;97621.91;;;5.69;68.41
22181;BME280;11256;50.830;12.834;2023-03-04T16:42:32;97618.09;;;5.65;68.04
22181;BME280;11256;50.830;12.834;2023-03-04T16:47:32;97625.59;;;5.63;67.64
22181;BME280;11256;50.830;12.834;2023-03-04T16:52:33;97617.47;;;5.58;68.12
22181;BME280;11256;50.830;12.834;2023-03-04T16:57:34;97621.22;;;5.57;68.01
22181;BME280;11256;50.830;12.834;2023-03-04T17:02:34;97620.41;;;5.56;68.06
22181;BME280;11256;50.830;12.834;2023-03-04T17:07:34;97616.03;;;5.50;67.82
22181;BME280;11256;50.830;12.834;2023-03-04T17:12:35;97619.78;;;5.49;67.92
22181;BME280;11256;50.830;12.834;2023-03-04T17:17:36;97607.59;;;5.42;68.26
22181;BME280;11256;50.830;12.834;2023-03-04T17:22:36;97623.22;;;5.45;68.10
22181;BME280;11256;50.830;12.834;2023-03-04T17:27:37;97614.03;;;5.41;68.00
22181;BME280;11256;50.830;12.834;2023-03-04T17:32:38;97630.41;;;5.39;67.91
22181;BME280;11256;50.830;12.834;2023-03-04T17:37:39;97626.63;;;5.40;68.35
22181;BME280;11256;50.830;12.834;2023-03-04T17:42:41;97628.47;;;5.35;68.49
22181;BME280;11256;50.830;12.834;2023-03-04T17:47:42;97633.53;;;5.31;68.49
22181;BME280;11256;50.830;12.834;2023-03-04T17:52:42;97622.13;;;5.24;68.56
22181;BME280;11256;50.830;12.834;2023-03-04T17:57:42;97623.44;;;5.22;68.44
22181;BME280;11256;50.830;12.834;2023-03-04T18:02:43;97627.81;;;5.28;68.50
22181;BME280;11256;50.830;12.834;2023-03-04T18:07:43;97624.50;;;5.21;68.76
22181;BME280;11256;50.830;12.834;2023-03-04T18:12:43;97633.75;;;5.30;68.69
22181;BME280;11256;50.830;12.834;2023-03-04T18:17:44;97629.94;;;5.26;68.85
22181;BME280;11256;50.830;12.834;2023-03-04T18:22:45;97627.19;;;5.21;68.79
22181;BME280;11256;50.830;12.834;2023-03-04T18:27:45;97619.88;;;5.16;68.81
22181;BME280;11256;50.830;12.834;2023-03-04T18:32:46;97623.31;;;5.12;68.90
22181;BME280;11256;50.830;12.834;2023-03-04T18:37:48;97625.72;;;5.13;68.81
22181;BME280;11256;50.830;12.834;2023-03-04T18:42:48;97617.94;;;5.12;68.83
22181;BME280;11256;50.830;12.834;2023-03-04T18:47:50;97622.72;;;5.10;68.72
22181;BME280;11256;50.830;12.834;2023-03-04T18:52:51;97621.13;;;5.09;68.83
22181;BME280;11256;50.830;12.834;2023-03-04T18:57:54;97609.75;;;5.02;68.57
22181;BME280;11256;50.830;12.834;2023-03-04T19:03:04;97632.84;;;5.03;68.54
22181;BME280;11256;50.830;12.834;2023-03-04T19:08:06;97618.19;;;4.94;69.06
22181;BME280;11256;50.830;12.834;2023-03-04T19:13:06;97629.03;;;4.99;69.09
22181;BME280;11256;50.830;12.834;2023-03-04T19:18:06;97637.16;;;5.04;68.72
22181;BME280;11256;50.830;12.834;2023-03-04T19:23:08;97641.38;;;5.00;69.06
22181;BME280;11256;50.830;12.834;2023-03-04T19:28:09;97642.44;;;4.99;69.25
22181;BME280;11256;50.830;12.834;2023-03-04T19:33:09;97642.38;;;4.94;68.74
22181;BME280;11256;50.830;12.834;2023-03-04T19:38:10;97636.44;;;4.92;68.48
22181;BME280;11256;50.830;12.834;2023-03-04T19:43:12;97639.59;;;4.89;68.74
22181;BME280;11256;50.830;12.834;2023-03-04T19:48:13;97643.34;;;4.88;68.86
22181;BME280;11256;50.830;12.834;2023-03-04T19:53:15;97649.22;;;4.85;68.95
22181;BME280;11256;50.830;12.834;2023-03-04T19:58:18;97651.31;;;4.83;68.91
22181;BME280;11256;50.830;12.834;2023-03-04T20:03:19;97644.50;;;4.75;69.25
22181;BME280;11256;50.830;12.834;2023-03-04T20:08:19;97644.81;;;4.79;69.13
22181;BME280;11256;50.830;12.834;2023-03-04T20:13:19;97645.31;;;4.76;69.24
22181;BME280;11256;50.830;12.834;2023-03-04T20:18:21;97658.50;;;4.77;68.99
22181;BME280;11256;50.830;12.834;2023-03-04T20:23:21;97645.22;;;4.71;69.14
22181;BME280;11256;50.830;12.834;2023-03-04T20:28:22;97651.16;;;4.73;69.02
22181;BME280;11256;50.830;12.834;2023-03-04T20:33:23;97662.38;;;4.70;69.19
22181;BME280;11256;50.830;12.834;2023-03-04T20:38:24;97658.09;;;4.69;69.13
22181;BME280;11256;50.830;12.834;2023-03-04T20:43:24;97654.34;;;4.70;69.09
22181;BME280;11256;50.830;12.834;2023-03-04T20:48:27;97652.13;;;4.67;69.01
22181;BME280;11256;50.830;12.834;2023-03-04T20:53:27;97653.44;;;4.64;68.95
22181;BME280;11256;50.830;12.834;2023-03-04T20:58:28;97626.94;;;4.51;69.17
22181;BME280;11256;50.830;12.834;2023-03-04T21:03:28;97654.72;;;4.62;69.31
22181;BME280;11256;50.830;12.834;2023-03-04T21:08:29;97652.88;;;4.62;69.29
22181;BME280;11256;50.830;12.834;2023-03-04T21:13:29;97653.63;;;4.58;68.91
22181;BME280;11256;50.830;12.834;2023-03-04T21:18:30;97630.34;;;4.47;69.10
22181;BME280;11256;50.830;12.834;2023-03-04T21:23:30;97653.63;;;4.58;69.27
22181;BME280;11256;50.830;12.834;2023-03-04T21:28:30;97656.22;;;4.53;68.88
22181;BME280;11256;50.830;12.834;2023-03-04T21:33:33;97658.31;;;4.51;69.05
22181;BME280;11256;50.830;12.834;2023-03-04T21:38:35;97647.25;;;4.47;68.99
22181;BME280;11256;50.830;12.834;2023-03-04T21:43:36;97640.81;;;4.48;68.83
22181;BME280;11256;50.830;12.834;2023-03-04T21:48:36;97639.44;;;4.46;69.31
22181;BME280;11256;50.830;12.834;2023-03-04T21:53:36;97618.31;;;4.33;69.04
22181;BME280;11256;50.830;12.834;2023-03-04T21:58:37;97623.19;;;4.36;68.83
22181;BME280;11256;50.830;12.834;2023-03-04T22:03:41;97626.13;;;4.34;68.78
22181;BME280;11256;50.830;12.834;2023-03-04T22:08:41;97619.91;;;4.34;68.87
22181;BME280;11256;50.830;12.834;2023-03-04T22:13:42;97611.47;;;4.25;69.31
22181;BME280;11256;50.830;12.834;2023-03-04T22:18:42;97610.16;;;4.28;69.04
22181;BME280;11256;50.830;12.834;2023-03-04T22:23:43;97615.31;;;4.29;69.01
22181;BME280;11256;50.830;12.834;2023-03-04T22:28:44;97626.59;;;4.31;69.24
22181;BME280;11256;50.830;12.834;2023-03-04T22:33:44;97621.06;;;4.38;68.81
22181;BME280;11256;50.830;12.834;2023-03-04T22:38:45;97622.44;;;4.24;69.23
22181;BME280;11256;50.830;12.834;2023-03-04T22:43:46;97630.31;;;4.30;69.03
22181;BME280;11256;50.830;12.834;2023-03-04T22:48:47;97612.28;;;4.26;69.15
22181;BME280;11256;50.830;12.834;2023-03-04T22:53:48;97621.41;;;4.25;69.12
22181;BME280;11256;50.830;12.834;2023-03-04T22:58:49;97630.47;;;4.24;69.07
22181;BME280;11256;50.830;12.834;2023-03-04T23:03:49;97628.84;;;4.23;69.25
22181;BME280;11256;50.830;12.834;2023-03-04T23:08:51;97627.13;;;4.17;69.14
22181;BME280;11256;50.830;12.834;2023-03-04T23:13:52;97619.91;;;4.17;69.63
22181;BME280;11256;50.830;12.834;2023-03-04T23:18:52;97620.72;;;4.18;69.26
22181;BME280;11256;50.830;12.834;2023-03-04T23:23:53;97615.25;;;4.13;69.16
22181;BME280;11256;50.830;12.834;2023-03-04T23:28:54;97607.22;;;4.13;69.52
22181;BME280;11256;50.830;12.834;2023-03-04T23:33:56;97589.09;;;4.03;69.06
22181;BME280;11256;50.830;12.834;2023-03-04T23:38:57;97596.31;;;4.03;68.81
22181;BME280;11256;50.830;12.834;2023-03-04T23:43:59;97593.63;;;4.03;68.85
22181;BME280;11256;50.830;12.834;2023-03-04T23:48:59;97591.78;;;4.03;68.78
22181;BME280;11256;50.830;12.834;2023-03-04T23:54:00;97584.59;;;3.92;68.93
22181;BME280;11256;50.830;12.834;2023-03-04T23:59:00;97582.66;;;3.88;68.79
